Latest Coastal Weather Observations for Low Head

IDT60701

Issued at 3:12 pm EDT Thursday 23 March 2017 (issued every 10 minutes, with the page automatically refreshed every 10 minutes)

About coastal observations | Map of coastal stations | Coastal observations for TAS | Marine services | Other Formats
Station Details ID: 091293 Name: LOW HEAD Lat: -41.05 Lon: 146.79 Height: 3.0 m
Data from the previous 72 hours. | See also: Recent months at Low Head
Date/Time
EDT
Temp
°C
Wind Pressure Rain since
9am
mm
Weather Cloud Vis
km
Sea
Height
m
Swell
Dir  Spd
kts
Gust
kts
hPa Trend Height
m
Period
s
Dir
23/03:00pm 20.1 NNW 8 10 1023.5 - 0.0 - - - - - - -
23/02:30pm 20.2 N 9 10 1023.7 - 0.0 - - - - - - -
23/02:00pm 20.7 N 6 7 1023.9 - 0.0 - - - - - - -
23/01:30pm 20.0 ESE 7 11 1024.3 - 0.0 - - - - - - -
23/01:00pm 19.5 SSW 8 11 1024.5 - 0.0 - - - - - - -
23/12:30pm 18.8 S 9 11 1024.7 - 0.0 - - - - - - -
23/12:00pm 17.8 S 10 13 1025.0 - 0.0 - - - - - - -
23/11:30am 17.0 SSE 12 14 1025.2 - 0.0 - - - - - - -
23/11:00am 15.6 SSE 12 17 1025.4 - 0.0 - - - - - - -
23/10:30am 14.8 SSE 12 15 1025.3 - 0.0 - - - - - - -
23/10:00am 14.1 SSE 12 17 1025.4 - 0.0 - - - - - - -
23/09:30am 13.7 SSE 15 19 1025.4 - 0.0 - - - - - - -
23/09:00am 13.3 SSE 17 22 1025.2 - 0.4 Recent precip. - - - - - -
23/08:30am 13.1 SSE 18 21 1024.9 - 0.4 - - - - - - -
23/08:00am 13.2 SSE 17 21 1024.8 - 0.0 - - - - - - -
23/07:30am 13.4 SSE 17 21 1024.4 - 0.0 - - - - - - -
23/07:00am 13.5 SSE 17 23 1024.2 - 0.0 - - - - - - -
23/06:30am 13.7 S 16 19 1024.2 - 0.0 - - - - - - -
23/06:00am 13.4 SSE 13 16 1024.2 - 0.0 - - - - - - -
23/05:30am 13.5 SSE 12 16 1024.1 - 0.0 - - - - - - -
23/05:00am 13.6 SSE 13 17 1024.0 - 0.0 - - - - - - -
23/04:30am 13.6 SSE 12 16 1024.0 - 0.0 - - - - - - -
23/04:00am 13.7 SSE 12 17 1023.9 - 0.0 - - - - - - -
23/03:30am 14.0 SSE 13 16 1023.9 - 0.0 - - - - - - -
23/03:00am 14.2 SSE 11 16 1024.0 - 0.0 - - - - - - -
23/02:30am 14.5 SSE 11 16 1024.0 - 0.0 - - - - - - -
23/02:00am 14.5 SSE 12 16 1024.0 - 0.0 - - - - - - -
23/01:30am 14.7 SSE 13 17 1023.9 - 0.0 - - - - - - -
23/01:00am 14.8 SSE 11 17 1024.0 - 0.0 - - - - - - -
23/12:30am 14.7 SSE 11 16 1024.1 - 0.0 - - - - - - -
23/12:00am 14.6 SE 10 15 1024.0 - 0.0 - - - - - - -
 
Date/Time
EDT
Temp
°C
Wind Pressure Rain since
9am
mm
Weather Cloud Vis
km
Sea
Height
m
Swell
Dir  Spd
kts
Gust
kts
hPa Trend Height
m
Period
s
Dir
22/11:30pm 14.7 SE 9 13 1024.1 - 0.0 - - - - - - -
22/11:00pm 15.0 SE 11 16 1023.9 - 0.0 - - - - - - -
22/10:30pm 15.4 SE 11 17 1023.6 - 0.0 - - - - - - -
22/10:00pm 15.5 SE 10 14 1023.4 - 0.0 - - - - - - -
22/09:30pm 15.8 SE 10 15 1023.2 - 0.0 - - - - - - -
22/09:00pm 16.0 SE 14 20 1022.6 - 0.0 - - - - - - -
22/08:30pm 16.2 SE 17 23 1022.0 - 0.0 - - - - - - -
22/08:00pm 16.5 SE 14 21 1022.0 - 0.0 - - - - - - -
22/07:30pm 16.8 SE 11 15 1021.7 - 0.0 - - - - - - -
22/07:00pm 17.4 SE 11 19 1021.4 - 0.0 - - - - - - -
22/06:30pm 18.0 SE 13 19 1021.0 - 0.0 - - - - - - -
22/06:00pm 19.0 SSE 14 21 1020.8 - 0.0 - - - - - - -
22/05:30pm 19.9 SE 11 17 1020.3 - 0.0 - - - - - - -
22/05:00pm 20.5 SSE 15 23 1019.9 - 0.0 - - - - - - -
22/04:30pm 20.7 SE 15 22 1019.7 - 0.0 - - - - - - -
22/04:00pm 21.0 SSE 17 22 1019.6 - 0.0 - - - - - - -
22/03:30pm 21.1 SE 15 20 1019.6 - 0.0 - - - - - - -
22/03:00pm 21.5 SE 14 19 1019.6 - 0.0 - - - - - - -
22/02:30pm 21.6 SE 13 19 1019.4 - 0.0 - - - - - - -
22/02:00pm 20.9 SSE 16 22 1019.4 - 0.0 - - - - - - -
22/01:30pm 21.2 SE 15 21 1019.6 - 0.0 - - - - - - -
22/01:00pm 20.6 SSE 14 22 1019.7 - 0.0 - - - - - - -
22/12:30pm 20.2 SSE 15 22 1019.8 - 0.0 - - - - - - -
22/12:00pm 19.5 SSE 16 22 1019.8 - 0.0 - - - - - - -
22/11:30am 18.8 SSE 16 22 1019.9 - 0.0 - - - - - - -
22/11:00am 17.6 SSE 15 19 1019.8 - 0.0 - - - - - - -
22/10:30am 17.5 SSE 14 19 1019.5 - 0.0 - - - - - - -
22/10:00am 16.8 SSE 13 17 1018.9 - 0.0 - - - - - - -
22/09:30am 16.6 SSE 13 21 1018.7 - 0.0 - - - - - - -
22/09:00am 16.3 SSE 13 18 1018.4 - 5.2 - - - - - - -
22/08:30am 16.0 SSE 13 17 1018.1 - 5.2 - - - - - - -
22/08:00am 16.0 S 13 16 1018.1 - 5.2 - - - - - - -
22/07:30am 15.9 SSE 14 17 1017.7 - 5.2 - - - - - - -
22/07:00am 15.8 SSE 14 18 1016.9 - 5.2 - - - - - - -
22/06:30am 15.9 SSE 12 17 1016.4 - 5.2 - - - - - - -
22/06:00am 15.8 SSE 14 18 1016.0 - 5.2 Recent precip. - - - - - -
22/05:30am 15.7 SSE 11 15 1015.9 - 5.0 - - - - - - -
22/05:00am 15.7 SSE 11 15 1016.0 - 4.8 - - - - - - -
22/04:30am 15.5 SE 11 15 1016.0 - 4.6 - - - - - - -
22/04:00am 15.5 SSE 10 14 1015.7 - 4.6 - - - - - - -
22/03:30am 15.7 SSE 14 19 1015.7 - 4.2 - - - - - - -
22/03:00am 15.7 SSE 12 16 1015.8 - 4.2 Recent precip. - - - - - -
22/02:30am 15.8 SSE 9 13 1015.9 - 4.0 - - - - - - -
22/02:00am 16.0 SSE 11 16 1015.8 - 4.0 - - - - - - -
22/01:30am 16.2 SSE 11 15 1015.7 - 3.8 - - - - - - -
22/01:00am 16.4 SSE 10 14 1015.8 - 3.8 - - - - - - -
22/12:30am 16.8 SE 8 11 1015.8 - 3.4 - - - - - - -
22/12:00am 17.1 SSE 8 12 1016.0 - 3.4 Rain - - - - - -
 
Date/Time
EDT
Temp
°C
Wind Pressure Rain since
9am
mm
Weather Cloud Vis
km
Sea
Height
m
Swell
Dir  Spd
kts
Gust
kts
hPa Trend Height
m
Period
s
Dir
21/11:30pm 17.1 E 6 7 1016.2 - 3.0 - - - - - - -
21/11:00pm 17.3 ENE 8 9 1016.2 - 2.6 - - - - - - -
21/10:30pm 17.4 ENE 7 9 1016.3 - 2.4 - - - - - - -
21/10:00pm 17.6 ENE 7 9 1016.2 - 2.4 - - - - - - -
21/09:30pm 17.6 E 7 8 1016.1 - 2.0 - - - - - - -
21/09:00pm 17.8 ENE 10 12 1015.9 - 1.6 Recent precip. - - - - - -
21/08:30pm 18.5 ENE 15 18 1015.7 - 1.0 - - - - - - -
21/08:00pm 18.8 ENE 11 15 1015.3 - 0.8 - - - - - - -
21/07:30pm 19.2 ENE 8 11 1015.1 - 0.0 - - - - - - -
21/07:00pm 19.3 NE 12 13 1014.9 - 0.0 - - - - - - -
21/06:30pm 19.5 NE 9 11 1014.9 - 0.0 - - - - - - -
21/06:00pm 19.4 NNE 7 8 1014.8 - 0.0 - - - - - - -
21/05:30pm 19.7 NE 8 10 1014.7 - 0.0 - - - - - - -
21/05:00pm 19.5 NNE 9 11 1015.0 - 0.0 - - - - - - -
21/04:30pm 19.6 NE 10 12 1015.0 - 0.0 - - - - - - -
21/04:00pm 20.0 NE 10 12 1015.1 - 0.0 - - - - - - -
21/03:30pm 20.4 NE 11 12 1015.4 - 0.0 - - - - - - -
21/03:00pm 20.3 NNE 9 10 1015.6 - 0.0 - - - - - - -
21/02:30pm 20.5 NNE 8 9 1015.8 - 0.0 - - - - - - -
21/02:00pm 20.7 NNE 9 11 1016.1 - 0.0 - - - - - - -
21/01:30pm 21.2 N 6 8 1016.3 - 0.0 - - - - - - -
21/01:00pm 20.9 NNW 4 4 1016.4 - 0.0 - - - - - - -
21/12:30pm 21.4 N 4 5 1016.7 - 0.0 - - - - - - -
21/12:00pm 20.9 S 7 9 1017.3 - 0.0 - - - - - - -
21/11:30am 19.7 S 12 14 1017.3 - 0.0 - - - - - - -
21/11:00am 19.5 S 12 14 1017.6 - 0.0 - - - - - - -
21/10:30am 18.9 S 12 14 1017.8 - 0.0 - - - - - - -
21/10:00am 18.5 SSE 11 14 1018.0 - 0.0 - - - - - - -
21/09:30am 18.2 SSE 11 13 1018.0 - 0.0 - - - - - - -
21/09:00am 17.5 S 11 13 1017.9 - 0.0 - - - - - - -
21/08:30am 16.8 SSE 11 13 1017.9 - 0.0 - - - - - - -
21/08:00am 16.5 SSE 10 13 1017.7 - 0.0 - - - - - - -
21/07:30am 16.4 SSE 10 12 1017.5 - 0.0 - - - - - - -
21/07:00am 16.2 SSE 9 13 1017.4 - 0.0 - - - - - - -
21/06:30am 16.2 SSE 7 10 1017.4 - 0.0 - - - - - - -
21/06:00am 16.3 SSE 8 10 1017.7 - 0.0 - - - - - - -
21/05:30am 16.7 SSE 9 11 1017.8 - 0.0 - - - - - - -
21/05:00am 16.1 SSE 8 10 1017.5 - 0.0 - - - - - - -
21/04:30am 16.3 SSE 7 10 1017.8 - 0.0 - - - - - - -
21/04:00am 16.7 SSE 8 10 1018.0 - 0.0 - - - - - - -
21/03:30am 16.6 SE 5 7 1018.3 - 0.0 - - - - - - -
21/03:00am 16.6 SSE 5 6 1018.5 - 0.0 - - - - - - -
21/02:30am 16.7 SE 4 6 1018.8 - 0.0 - - - - - - -
21/02:00am 16.8 SE 5 6 1018.7 - 0.0 - - - - - - -
21/01:30am 17.1 ESE 5 5 1018.6 - 0.0 - - - - - - -
21/01:00am 17.2 ESE 5 6 1018.6 - 0.0 - - - - - - -
21/12:30am 17.4 E 6 8 1018.8 - 0.0 - - - - - - -
21/12:00am 16.9 SE 6 6 1018.8 - 0.0 - - - - - - -
 
Date/Time
EDT
Temp
°C
Wind Pressure Rain since
9am
mm
Weather Cloud Vis
km
Sea
Height
m
Swell
Dir  Spd
kts
Gust
kts
hPa Trend Height
m
Period
s
Dir
20/11:30pm 17.2 ESE 4 4 1018.9 - 0.0 - - - - - - -
20/11:00pm 17.3 ESE 4 6 1018.8 - 0.0 - - - - - - -
20/10:30pm 17.4 ESE 5 6 1018.7 - 0.0 - - - - - - -
20/10:00pm 18.6 ENE 6 7 1018.5 - 0.0 - - - - - - -
20/09:30pm 17.9 SE 5 6 1018.2 - 0.0 - - - - - - -
20/09:00pm 18.7 E 6 9 1017.9 - 0.0 - - - - - - -
20/08:30pm 19.6 ENE 10 14 1017.7 - 0.0 - - - - - - -
20/08:00pm 19.5 NE 11 12 1017.5 - 0.0 - - - - - - -
20/07:30pm 19.7 NE 9 11 1017.3 - 0.0 - - - - - - -
20/07:00pm 19.7 NE 7 9 1017.2 - 0.0 - - - - - - -
20/06:30pm 20.0 NE 8 8 1017.1 - 0.0 - - - - - - -
20/06:00pm 20.1 NE 8 10 1017.0 - 0.0 - - - - - - -
20/05:30pm 20.2 NNE 8 10 1016.8 - 0.0 - - - - - - -
20/05:00pm 20.0 N 5 7 1016.9 - 0.0 - - - - - - -
20/04:30pm 20.0 N 3 4 1017.0 - 0.0 - - - - - - -
20/04:00pm 20.1 NNE 1 4 1017.1 - 0.0 - - - - - - -
20/03:30pm 20.5 CALM 0 0 1017.6 - 0.0 - - - - - - -

Other Formats:

Comma delimited format used in spreadsheet applications
http://www.bom.gov.au/fwo/IDT60701/IDT60701.95964.axf

JavaScript Object Notation format (JSON) in row-major order
http://www.bom.gov.au/fwo/IDT60701/IDT60701.95964.json